Time;durP1;ratioP1;P1;durP2;ratioP2;P2;SDS_P1;SDS_P2;PMS_P1;PMS_P2;Temp;Humidity;BMP_temperature;BMP_pressure;BME280_temperature;BME280_humidity;BME280_pressure;Samples;Min_cycle;Max_cycle;Signal;HPM_P1;HPM_P2
2023/01/21 00:00:27;;;;;;;14.35;4.18;;;0.60;99.90;;;;;;5074440;28;20415;-95
2023/01/21 00:02:53;;;;;;;15.57;4.40;;;0.50;99.90;;;;;;5057195;28;20122;-94
2023/01/21 00:05:18;;;;;;;11.52;4.05;;;0.50;99.90;;;;;;5057600;28;20107;-95
2023/01/21 00:07:44;;;;;;;11.27;4.43;;;0.50;99.90;;;;;;5057326;28;20032;-94
2023/01/21 00:10:10;;;;;;;12.55;3.95;;;0.40;99.90;;;;;;5058154;28;20027;-94
2023/01/21 00:12:37;;;;;;;9.13;3.72;;;0.40;99.90;;;;;;5058163;28;20025;-94
2023/01/21 00:15:03;;;;;;;9.27;3.72;;;0.40;99.90;;;;;;5057253;28;20059;-93
2023/01/21 00:17:34;;;;;;;15.10;5.00;;;0.40;99.90;;;;;;5074123;28;20025;-93
2023/01/21 00:20:00;;;;;;;8.52;3.50;;;0.40;99.90;;;;;;5057471;28;20044;-95
2023/01/21 00:22:25;;;;;;;17.20;5.72;;;0.40;99.90;;;;;;5057591;28;20089;-94
2023/01/21 00:24:51;;;;;;;14.90;4.03;;;0.40;99.90;;;;;;5057644;28;20035;-94
2023/01/21 00:27:16;;;;;;;13.13;4.30;;;0.40;99.90;;;;;;5057299;28;20031;-94
2023/01/21 00:29:42;;;;;;;14.07;4.97;;;0.40;99.90;;;;;;5057346;28;20112;-93
2023/01/21 00:32:08;;;;;;;20.33;5.55;;;0.40;99.90;;;;;;5073707;28;20043;-94
2023/01/21 00:34:33;;;;;;;12.90;5.00;;;0.40;99.90;;;;;;5057240;28;20021;-94
2023/01/21 00:36:59;;;;;;;20.92;7.25;;;0.30;99.90;;;;;;5057030;28;20040;-93
2023/01/21 00:39:24;;;;;;;68.15;18.27;;;0.20;99.90;;;;;;5057122;28;20159;-93
2023/01/21 00:41:50;;;;;;;52.45;15.63;;;0.10;99.90;;;;;;5057098;28;20351;-93
2023/01/21 00:44:16;;;;;;;29.60;9.05;;;0.10;99.90;;;;;;5056995;28;20028;-93
2023/01/21 00:46:42;;;;;;;31.75;10.20;;;0.00;99.90;;;;;;5049851;28;20047;-93
2023/01/21 00:49:07;;;;;;;22.35;6.75;;;0.00;99.90;;;;;;5054990;28;20055;-93
2023/01/21 00:51:33;;;;;;;24.33;7.75;;;0.00;99.90;;;;;;5056738;28;20398;-93
2023/01/21 00:54:00;;;;;;;16.50;5.78;;;0.10;99.90;;;;;;5056876;28;20036;-92
2023/01/21 00:56:26;;;;;;;16.30;6.80;;;0.00;99.90;;;;;;5057937;28;20021;-93
2023/01/21 00:58:51;;;;;;;17.02;5.57;;;0.00;99.90;;;;;;5056127;28;20031;-91
2023/01/21 01:01:20;;;;;;;11.95;4.78;;;0.00;99.90;;;;;;5056858;28;20032;-92
2023/01/21 01:03:47;;;;;;;19.55;6.05;;;0.10;99.90;;;;;;5056816;28;20024;-92
2023/01/21 01:06:14;;;;;;;15.00;5.22;;;0.10;99.90;;;;;;5056654;28;20029;-92
2023/01/21 01:08:41;;;;;;;10.73;4.72;;;0.10;99.90;;;;;;5056696;28;20087;-93
2023/01/21 01:11:07;;;;;;;15.93;4.50;;;0.10;99.90;;;;;;5056482;28;20037;-93
2023/01/21 01:13:34;;;;;;;14.95;4.95;;;0.10;99.90;;;;;;5056098;28;20131;-92
2023/01/21 01:16:01;;;;;;;12.60;4.30;;;0.20;99.90;;;;;;5056285;28;20024;-92
2023/01/21 01:18:29;;;;;;;12.35;4.05;;;0.20;99.90;;;;;;5056265;28;20033;-93
2023/01/21 01:20:55;;;;;;;15.80;4.03;;;0.20;99.90;;;;;;5056865;28;20193;-94
2023/01/21 01:23:21;;;;;;;11.93;4.72;;;0.20;99.90;;;;;;5057158;28;20071;-91
2023/01/21 01:25:55;;;;;;;11.43;4.18;;;0.20;99.90;;;;;;5060496;28;20052;-91
2023/01/21 01:28:20;;;;;;;10.90;3.90;;;0.20;99.90;;;;;;5057485;28;20035;-92
2023/01/21 01:30:46;;;;;;;12.15;4.20;;;0.20;99.90;;;;;;5056495;28;20385;-92
2023/01/21 01:33:12;;;;;;;8.48;3.92;;;0.20;99.90;;;;;;5056047;28;20021;-93
2023/01/21 01:35:38;;;;;;;8.65;3.95;;;0.20;99.90;;;;;;5056198;28;20543;-93
2023/01/21 01:38:08;;;;;;;11.98;4.30;;;0.20;99.90;;;;;;5054542;28;20025;-92
2023/01/21 01:40:34;;;;;;;;;;;0.10;99.90;;;;;;5056199;28;20141;-93
2023/01/21 01:43:00;;;;;;;10.02;3.60;;;0.10;99.90;;;;;;5055880;28;20389;-93
2023/01/21 01:45:26;;;;;;;10.50;4.40;;;0.10;99.90;;;;;;5055699;28;20035;-93
2023/01/21 01:47:59;;;;;;;10.15;3.53;;;0.00;99.90;;;;;;5056012;28;20796;-94
2023/01/21 01:50:30;;;;;;;11.30;4.00;;;0.00;99.90;;;;;;5056226;28;20131;-94
2023/01/21 01:53:00;;;;;;;16.52;4.80;;;-0.10;99.90;;;;;;5052872;28;20025;-93
2023/01/21 01:55:30;;;;;;;16.77;4.15;;;-0.20;99.90;;;;;;5055961;28;20111;-93
2023/01/21 01:57:56;;;;;;;;;;;-0.20;99.90;;;;;;5057824;28;20028;-92
2023/01/21 02:00:24;;;;;;;14.20;3.65;;;-0.30;99.90;;;;;;5061128;28;20416;-93
2023/01/21 02:05:37;;;;;;;10.07;3.70;;;-0.30;99.90;;;;;;5076927;28;20047;-94
2023/01/21 02:08:03;;;;;;;13.00;4.32;;;-0.40;99.90;;;;;;5057215;28;20039;-94
2023/01/21 02:10:30;;;;;;;14.00;4.13;;;-0.40;99.90;;;;;;5056298;28;20362;-94
2023/01/21 02:12:56;;;;;;;8.50;3.85;;;-0.40;99.90;;;;;;5055782;28;20442;-94
2023/01/21 02:15:30;;;;;;;11.25;4.15;;;-0.40;99.90;;;;;;5055067;28;20024;-92
2023/01/21 02:18:01;;;;;;;12.73;4.03;;;-0.50;99.90;;;;;;5055467;28;20036;-94
2023/01/21 02:21:24;;;;;;;8.25;3.33;;;-0.50;99.90;;;;;;5073668;28;20079;-94
2023/01/21 02:23:56;;;;;;;11.23;4.13;;;-0.60;99.90;;;;;;4975853;28;20442;-95
2023/01/21 02:26:48;;;;;;;11.18;4.00;;;-0.60;99.90;;;;;;4975111;28;20060;-93
2023/01/21 02:29:43;;;;;;;15.63;4.13;;;-0.60;99.90;;;;;;4975477;28;20082;-92
2023/01/21 02:32:39;;;;;;;9.57;3.67;;;-0.60;99.90;;;;;;4969995;28;20046;-92
2023/01/21 02:35:17;;;;;;;17.60;3.90;;;-0.70;99.90;;;;;;4974748;28;20026;-91
2023/01/21 02:37:56;;;;;;;9.13;3.72;;;-0.70;99.90;;;;;;4975032;28;20022;-92
2023/01/21 02:40:37;;;;;;;8.00;3.65;;;-0.70;99.90;;;;;;4974274;28;20102;-92
2023/01/21 02:43:21;;;;;;;17.20;4.70;;;-0.70;99.90;;;;;;4974636;28;20061;-92
2023/01/21 02:46:08;;;;;;;13.27;4.00;;;-0.70;99.90;;;;;;4990712;28;20085;-93
2023/01/21 02:48:44;;;;;;;11.82;3.80;;;-0.70;99.90;;;;;;4974820;28;20133;-93
2023/01/21 02:51:12;;;;;;;15.95;4.35;;;-0.80;99.90;;;;;;4974514;28;20161;-94
2023/01/21 02:53:37;;;;;;;13.73;5.50;;;-0.80;99.90;;;;;;4984149;28;20147;-92
2023/01/21 02:56:03;;;;;;;16.38;5.30;;;-0.90;99.90;;;;;;5030860;28;20164;-91
2023/01/21 02:58:33;;;;;;;13.40;4.60;;;-0.90;99.90;;;;;;5032207;28;20493;-92
2023/01/21 03:01:01;;;;;;;13.67;4.77;;;-1.00;99.90;;;;;;5031680;28;20030;-93
2023/01/21 03:03:45;;;;;;;10.43;4.13;;;-1.00;99.90;;;;;;5032307;28;20264;-92
2023/01/21 03:06:31;;;;;;;12.45;4.10;;;-1.10;99.90;;;;;;5031154;28;20041;-93
2023/01/21 03:09:12;;;;;;;16.15;4.32;;;-1.10;99.90;;;;;;5031055;28;20022;-96
2023/01/21 03:11:41;;;;;;;10.43;4.20;;;-1.10;99.90;;;;;;5032657;28;20043;-95
2023/01/21 03:17:20;;;;;;;16.95;5.95;;;-1.00;99.90;;;;;;5036200;28;20029;-94
2023/01/21 03:20:16;;;;;;;20.38;6.80;;;-1.10;99.90;;;;;;5035246;28;20487;-95
2023/01/21 03:22:44;;;;;;;47.47;13.50;;;-1.10;99.90;;;;;;5038647;28;20029;-94
2023/01/21 03:25:11;;;;;;;27.88;9.48;;;-1.10;99.90;;;;;;5038271;28;20108;-93
2023/01/21 03:27:41;;;;;;;19.58;6.25;;;-1.20;99.90;;;;;;5039894;28;20017;-90
2023/01/21 03:30:16;;;;;;;24.27;6.63;;;-1.20;99.90;;;;;;5038815;28;20025;-91
2023/01/21 03:32:47;;;;;;;15.88;5.50;;;-1.30;99.90;;;;;;5037511;28;20018;-93
2023/01/21 03:35:20;;;;;;;15.65;5.53;;;-1.30;99.90;;;;;;5038566;28;20483;-92
2023/01/21 03:37:55;;;;;;;18.75;5.95;;;-1.30;99.90;;;;;;5038097;28;20041;-93
2023/01/21 03:40:31;;;;;;;33.85;8.20;;;-1.40;99.90;;;;;;5030751;28;20048;-91
2023/01/21 03:42:57;;;;;;;96.22;21.73;;;-1.40;99.90;;;;;;5034849;28;20508;-92
2023/01/21 03:45:43;;;;;;;61.70;16.23;;;-1.40;99.90;;;;;;5034074;28;20041;-93
2023/01/21 03:48:46;;;;;;;39.53;13.55;;;-1.50;99.90;;;;;;5034538;28;20089;-92
2023/01/21 03:51:17;;;;;;;37.63;10.93;;;-1.60;99.90;;;;;;5001377;28;20041;-93
2023/01/21 03:53:43;;;;;;;35.13;10.27;;;-1.60;99.90;;;;;;5034317;28;20036;-92
2023/01/21 03:56:09;;;;;;;39.83;9.10;;;-1.60;99.90;;;;;;5034804;28;20022;-92
2023/01/21 03:58:34;;;;;;;40.00;11.00;;;-1.70;99.90;;;;;;5034210;28;20036;-93
2023/01/21 04:01:00;;;;;;;39.78;10.05;;;-1.60;99.90;;;;;;5034375;28;20045;-93
2023/01/21 04:03:26;;;;;;;36.75;11.18;;;-1.70;99.90;;;;;;5034701;28;20029;-92
2023/01/21 04:05:51;;;;;;;42.38;12.48;;;-1.70;99.90;;;;;;5034526;28;20036;-93
2023/01/21 04:08:17;;;;;;;37.72;11.27;;;-1.70;99.90;;;;;;5034220;28;20057;-93
2023/01/21 04:10:43;;;;;;;43.35;11.55;;;-1.80;99.90;;;;;;5036038;28;20034;-93
2023/01/21 04:13:08;;;;;;;39.03;10.85;;;-1.80;99.90;;;;;;5034657;28;20029;-94
2023/01/21 04:15:34;;;;;;;31.20;10.85;;;-1.80;99.90;;;;;;5034961;28;20026;-95
2023/01/21 04:17:59;;;;;;;30.10;9.93;;;-1.80;99.90;;;;;;5035015;28;20426;-94
2023/01/21 04:20:25;;;;;;;26.75;8.32;;;-1.80;99.90;;;;;;5038749;28;20042;-92
2023/01/21 04:22:51;;;;;;;26.65;8.07;;;-1.80;99.90;;;;;;5049278;28;20025;-93
2023/01/21 04:25:16;;;;;;;23.17;7.93;;;-1.80;99.90;;;;;;5042025;28;20037;-92
2023/01/21 04:27:42;;;;;;;29.42;7.97;;;-1.80;99.90;;;;;;5040419;28;20025;-92
2023/01/21 04:30:08;;;;;;;20.77;7.10;;;-1.90;99.90;;;;;;5039797;28;20613;-91
2023/01/21 04:32:36;;;;;;;44.55;11.95;;;-1.90;99.90;;;;;;5037010;28;20092;-93
2023/01/21 04:35:01;;;;;;;58.63;12.68;;;-1.90;99.90;;;;;;5036381;28;20161;-93
2023/01/21 04:37:27;;;;;;;47.53;10.43;;;-1.90;99.90;;;;;;5035901;28;20033;-94
2023/01/21 04:39:53;;;;;;;38.25;9.90;;;-2.00;99.90;;;;;;5037826;28;20132;-92
2023/01/21 04:42:18;;;;;;;35.78;8.60;;;-2.00;99.90;;;;;;5041885;28;20036;-93
2023/01/21 04:44:44;;;;;;;30.77;8.90;;;-2.00;99.90;;;;;;5040059;28;20026;-93
2023/01/21 04:47:10;;;;;;;26.83;8.70;;;-1.90;99.90;;;;;;5039208;28;20041;-94
2023/01/21 04:49:35;;;;;;;33.00;9.82;;;-1.90;99.90;;;;;;5035897;28;20035;-93
2023/01/21 04:52:01;;;;;;;38.15;10.13;;;-1.90;99.90;;;;;;5052526;28;20057;-93
2023/01/21 04:54:26;;;;;;;28.65;9.18;;;-1.90;99.90;;;;;;5054412;28;20025;-94
2023/01/21 04:56:52;;;;;;;23.95;8.50;;;-1.90;99.90;;;;;;5054353;28;20055;-94
2023/01/21 04:59:18;;;;;;;25.08;9.13;;;-1.90;99.90;;;;;;5054093;28;20041;-94
2023/01/21 05:01:43;;;;;;;35.40;8.73;;;-2.00;99.90;;;;;;5054421;28;20112;-93
2023/01/21 05:04:09;;;;;;;36.53;9.18;;;-2.00;99.90;;;;;;5071101;28;20037;-93
2023/01/21 05:06:35;;;;;;;35.00;9.40;;;-2.00;99.90;;;;;;5054017;28;20072;-94
2023/01/21 05:09:00;;;;;;;33.88;8.85;;;-2.10;99.90;;;;;;5071300;28;20025;-94
2023/01/21 05:11:26;;;;;;;61.03;11.23;;;-2.20;99.90;;;;;;5054301;28;20082;-94
2023/01/21 05:13:52;;;;;;;28.67;9.52;;;-2.20;99.90;;;;;;5055034;28;20505;-94
2023/01/21 05:16:17;;;;;;;36.90;10.30;;;-2.20;99.90;;;;;;5060719;28;20051;-94
2023/01/21 05:18:44;;;;;;;40.58;9.40;;;-2.20;99.90;;;;;;5056846;28;20028;-94
2023/01/21 05:21:10;;;;;;;38.40;10.88;;;-2.20;99.90;;;;;;5053832;28;20028;-93
2023/01/21 05:23:36;;;;;;;45.63;9.85;;;-2.30;99.90;;;;;;5070902;28;20110;-93
2023/01/21 05:26:01;;;;;;;42.40;10.93;;;-2.30;99.90;;;;;;5054514;28;20032;-94
2023/01/21 05:28:27;;;;;;;59.72;10.57;;;-2.30;99.90;;;;;;5069628;28;20512;-94
2023/01/21 05:30:53;;;;;;;45.95;10.23;;;-2.30;99.90;;;;;;5052826;28;20025;-93
2023/01/21 05:33:24;;;;;;;46.85;9.65;;;-2.20;99.90;;;;;;5053432;28;20051;-94
2023/01/21 05:35:50;;;;;;;59.35;10.25;;;-2.30;99.90;;;;;;5053188;28;20483;-93
2023/01/21 05:38:16;;;;;;;47.88;11.23;;;-2.30;99.90;;;;;;5053041;28;20029;-94
2023/01/21 05:40:44;;;;;;;33.95;9.25;;;-2.20;99.90;;;;;;5051798;28;20081;-96
2023/01/21 05:43:10;;;;;;;55.85;10.73;;;-2.30;99.90;;;;;;5055305;28;20021;-93
2023/01/21 05:45:36;;;;;;;33.50;9.73;;;-2.30;99.90;;;;;;5065197;28;20037;-92
2023/01/21 05:48:02;;;;;;;42.10;10.02;;;-2.30;99.90;;;;;;5052521;28;20048;-92
2023/01/21 05:50:27;;;;;;;33.10;10.73;;;-2.30;99.90;;;;;;5053157;28;20121;-95
2023/01/21 05:52:53;;;;;;;47.95;10.50;;;-2.30;99.90;;;;;;5053833;28;20111;-95
2023/01/21 05:55:19;;;;;;;52.05;9.65;;;-2.30;99.90;;;;;;5053296;28;20663;-94
2023/01/21 05:57:45;;;;;;;57.92;10.00;;;-2.30;99.90;;;;;;5053524;28;20037;-94
2023/01/21 06:00:11;;;;;;;46.55;11.45;;;-2.30;99.90;;;;;;5053994;28;20071;-95
2023/01/21 06:02:37;;;;;;;61.47;14.55;;;-2.40;99.90;;;;;;5055207;28;20067;-96
2023/01/21 06:05:02;;;;;;;67.00;13.70;;;-2.40;99.90;;;;;;5053793;28;20021;-95
2023/01/21 06:07:28;;;;;;;50.38;12.27;;;-2.40;99.90;;;;;;5052548;28;20025;-94
2023/01/21 06:09:54;;;;;;;54.58;11.65;;;-2.50;99.90;;;;;;5052004;28;20021;-94
2023/01/21 06:12:19;;;;;;;45.28;10.55;;;-2.40;99.90;;;;;;5053546;28;20032;-95
2023/01/21 06:14:45;;;;;;;57.40;12.30;;;-2.50;99.90;;;;;;5053363;28;20174;-95
2023/01/21 06:17:10;;;;;;;62.67;11.57;;;-2.50;99.90;;;;;;5051909;28;20057;-93
2023/01/21 06:19:36;;;;;;;53.88;10.95;;;-2.50;99.90;;;;;;5052439;28;20044;-94
2023/01/21 06:22:02;;;;;;;42.60;9.82;;;-2.50;99.90;;;;;;5053697;28;20025;-94
2023/01/21 06:24:28;;;;;;;29.25;9.77;;;-2.50;99.90;;;;;;5054964;28;20071;-95
2023/01/21 06:26:53;;;;;;;46.75;9.63;;;-2.50;99.90;;;;;;5054427;28;20032;-94
2023/01/21 06:29:19;;;;;;;58.92;12.63;;;-2.50;99.90;;;;;;5053589;28;20024;-95
2023/01/21 06:31:44;;;;;;;48.78;9.18;;;-2.50;99.90;;;;;;5053148;28;20551;-95
2023/01/21 06:34:11;;;;;;;55.78;11.05;;;-2.40;99.90;;;;;;5053932;28;20029;-95
2023/01/21 06:36:39;;;;;;;53.42;10.43;;;-2.50;99.90;;;;;;5055837;28;20032;-94
2023/01/21 06:39:05;;;;;;;70.38;11.00;;;-2.50;99.90;;;;;;5055141;28;20056;-95
2023/01/21 06:41:31;;;;;;;70.03;11.02;;;-2.60;99.90;;;;;;5054542;28;20056;-94
2023/01/21 06:43:56;;;;;;;37.72;10.55;;;-2.60;99.90;;;;;;5054851;28;20386;-95
2023/01/21 06:46:23;;;;;;;42.88;8.77;;;-2.60;99.90;;;;;;5056729;28;20029;-94
2023/01/21 06:48:53;;;;;;;31.70;9.95;;;-2.60;99.90;;;;;;5057532;28;20025;-95
2023/01/21 06:51:18;;;;;;;52.60;9.00;;;-2.60;99.90;;;;;;5054473;28;20556;-95
2023/01/21 06:53:44;;;;;;;62.22;9.45;;;-2.70;99.90;;;;;;5057986;28;20021;-96
2023/01/21 06:56:10;;;;;;;32.97;8.63;;;-2.60;99.90;;;;;;5059823;28;20025;-94
2023/01/21 06:58:35;;;;;;;48.00;8.32;;;-2.70;99.90;;;;;;5057227;28;20171;-92
2023/01/21 07:01:01;;;;;;;42.65;9.18;;;-2.70;99.90;;;;;;5054430;28;20021;-95
2023/01/21 07:03:28;;;;;;;32.15;8.05;;;-2.70;99.90;;;;;;5052192;28;20021;-92
2023/01/21 07:05:54;;;;;;;42.97;9.10;;;-2.70;99.90;;;;;;5052566;28;20013;-93
2023/01/21 07:08:20;;;;;;;38.15;8.90;;;-2.70;99.90;;;;;;5056097;28;20029;-94
2023/01/21 07:10:48;;;;;;;51.15;11.32;;;-2.60;99.90;;;;;;5056390;28;20040;-94
2023/01/21 07:13:14;;;;;;;28.67;9.07;;;-2.70;99.90;;;;;;5063647;28;20029;-94
2023/01/21 07:15:40;;;;;;;29.15;8.88;;;-2.70;99.90;;;;;;5056880;28;20108;-93
2023/01/21 07:18:06;;;;;;;22.25;8.95;;;-2.70;99.90;;;;;;5062960;28;20029;-94
2023/01/21 07:20:31;;;;;;;23.35;8.32;;;-2.70;99.90;;;;;;5066697;28;20033;-92
2023/01/21 07:22:57;;;;;;;32.15;8.80;;;-2.70;99.90;;;;;;5060830;28;20021;-93
2023/01/21 07:25:23;;;;;;;28.23;8.18;;;-2.70;99.90;;;;;;5059714;28;20491;-93
2023/01/21 07:27:48;;;;;;;31.23;8.73;;;-2.70;99.90;;;;;;5059438;28;20025;-94
2023/01/21 07:30:17;;;;;;;52.17;10.80;;;-2.70;99.90;;;;;;5055896;28;20048;-94
2023/01/21 07:32:43;;;;;;;60.13;10.23;;;-2.80;99.90;;;;;;5055185;28;20049;-95
2023/01/21 07:35:09;;;;;;;116.28;11.27;;;-2.80;99.90;;;;;;5052954;28;20036;-94
2023/01/21 07:37:35;;;;;;;51.80;9.90;;;-2.80;99.90;;;;;;5052763;28;20459;-93
2023/01/21 07:40:00;;;;;;;32.92;10.27;;;-2.80;99.90;;;;;;5052406;28;20047;-93
2023/01/21 07:42:26;;;;;;;120.15;11.13;;;-2.80;99.90;;;;;;5050312;28;20022;-92
2023/01/21 07:44:52;;;;;;;30.17;9.00;;;-2.80;99.90;;;;;;5051651;28;20032;-94
2023/01/21 07:47:17;;;;;;;44.53;10.20;;;-2.80;99.90;;;;;;5050887;28;20025;-95
2023/01/21 07:49:43;;;;;;;60.47;10.00;;;-2.80;99.90;;;;;;5051274;28;20021;-92
2023/01/21 07:52:09;;;;;;;43.58;10.32;;;-2.80;99.90;;;;;;5051212;28;20044;-95
2023/01/21 07:54:34;;;;;;;36.65;10.95;;;-2.80;99.90;;;;;;5051474;28;20036;-95
2023/01/21 07:57:00;;;;;;;41.15;9.35;;;-2.80;99.90;;;;;;5051404;28;20025;-94
2023/01/21 07:59:26;;;;;;;50.45;9.32;;;-2.80;99.90;;;;;;5053391;28;20104;-94
2023/01/21 08:01:52;;;;;;;44.72;9.23;;;-2.80;99.90;;;;;;5056352;28;20025;-95
2023/01/21 08:04:17;;;;;;;49.25;9.32;;;-2.80;99.90;;;;;;5055184;28;20025;-96
2023/01/21 08:06:43;;;;;;;40.08;9.85;;;-2.80;99.90;;;;;;5054526;28;20083;-93
2023/01/21 08:09:11;;;;;;;52.88;9.55;;;-2.80;99.90;;;;;;5054643;28;20035;-95
2023/01/21 08:11:42;;;;;;;45.55;10.10;;;-2.80;99.90;;;;;;5038543;28;20492;-95
2023/01/21 08:14:08;;;;;;;33.67;9.75;;;-2.80;99.90;;;;;;5056535;28;20120;-92
2023/01/21 08:16:34;;;;;;;35.13;10.13;;;-2.80;99.90;;;;;;5055929;28;20052;-95
2023/01/21 08:19:02;;;;;;;23.98;8.52;;;-2.80;99.90;;;;;;5055394;28;20036;-95
2023/01/21 08:21:27;;;;;;;23.10;8.80;;;-2.80;99.90;;;;;;5055176;28;20025;-92
2023/01/21 08:23:53;;;;;;;42.70;10.05;;;-2.80;99.90;;;;;;5054558;28;20036;-92
2023/01/21 08:26:19;;;;;;;38.53;8.65;;;-2.80;99.90;;;;;;5055474;28;20037;-93
2023/01/21 08:28:44;;;;;;;25.10;8.50;;;-2.80;99.90;;;;;;5054776;28;20036;-94
2023/01/21 08:31:11;;;;;;;49.67;9.43;;;-2.80;99.90;;;;;;5054940;28;20098;-90
2023/01/21 08:33:38;;;;;;;46.28;9.45;;;-2.80;99.90;;;;;;5055891;28;20025;-95
2023/01/21 08:36:06;;;;;;;114.35;12.45;;;-2.80;99.90;;;;;;5055188;28;20166;-93
2023/01/21 08:38:32;;;;;;;82.25;12.43;;;-2.80;99.90;;;;;;5054937;28;20112;-93
2023/01/21 08:40:58;;;;;;;83.50;18.00;;;-2.80;99.90;;;;;;5055062;28;20048;-94
2023/01/21 08:43:24;;;;;;;78.15;15.25;;;-2.70;99.90;;;;;;5055026;28;20037;-93
2023/01/21 08:46:05;;;;;;;96.45;14.60;;;-2.80;99.90;;;;;;5055243;28;20033;-95
2023/01/21 08:48:30;;;;;;;69.18;8.35;;;-2.80;99.90;;;;;;5056524;28;20080;-93
2023/01/21 08:50:59;;;;;;;67.95;11.85;;;-2.70;99.90;;;;;;5055457;28;20073;-93
2023/01/21 08:53:25;;;;;;;192.73;16.38;;;-2.80;99.90;;;;;;5056371;28;20044;-94
2023/01/21 08:55:51;;;;;;;119.80;13.27;;;-2.80;99.90;;;;;;5060893;28;20025;-93
2023/01/21 08:58:17;;;;;;;176.25;15.07;;;-2.70;99.90;;;;;;5058314;28;20439;-93
2023/01/21 09:00:43;;;;;;;68.80;11.85;;;-2.70;99.90;;;;;;5053630;28;20044;-95
2023/01/21 09:03:09;;;;;;;46.88;12.48;;;-2.70;99.90;;;;;;5049282;28;20094;-93
2023/01/21 09:05:35;;;;;;;79.30;10.77;;;-2.50;99.90;;;;;;5059683;28;20474;-94
2023/01/21 09:08:01;;;;;;;73.88;11.25;;;-2.30;99.90;;;;;;5056648;28;20074;-95
2023/01/21 09:13:10;;;;;;;39.10;9.55;;;-2.00;99.90;;;;;;5056939;28;20091;-94
2023/01/21 09:15:43;;;;;;;31.77;9.98;;;-1.80;99.90;;;;;;5056147;28;20036;-94
2023/01/21 09:18:08;;;;;;;31.55;10.15;;;-1.60;99.90;;;;;;5053567;28;20044;-94
2023/01/21 09:20:34;;;;;;;34.38;10.15;;;-1.40;99.90;;;;;;5056664;28;20033;-94
2023/01/21 09:23:00;;;;;;;55.88;14.35;;;-1.20;99.90;;;;;;5054533;28;20033;-93
2023/01/21 09:25:26;;;;;;;55.17;15.63;;;-1.00;99.90;;;;;;5055255;28;20028;-94
2023/01/21 09:27:54;;;;;;;91.72;14.00;;;-0.80;99.90;;;;;;5055139;28;20029;-93
2023/01/21 09:30:28;;;;;;;65.30;10.10;;;-0.80;99.90;;;;;;5062897;28;20053;-93
2023/01/21 09:32:54;;;;;;;47.60;12.13;;;-0.80;99.90;;;;;;5055728;28;20031;-93
2023/01/21 09:35:20;;;;;;;142.40;14.57;;;-0.90;99.90;;;;;;5054015;28;20040;-93
2023/01/21 09:37:46;;;;;;;49.97;12.73;;;-1.00;99.90;;;;;;5054628;28;20478;-93
2023/01/21 09:40:15;;;;;;;151.00;21.95;;;-1.00;99.90;;;;;;5054803;28;20406;-93
2023/01/21 09:42:41;;;;;;;55.15;14.13;;;-1.10;99.90;;;;;;5053050;28;20044;-94
2023/01/21 09:45:13;;;;;;;122.85;16.60;;;-1.20;99.90;;;;;;5052972;28;20033;-94
2023/01/21 09:47:42;;;;;;;78.60;15.70;;;-1.30;99.90;;;;;;5053171;28;20470;-93
2023/01/21 09:50:17;;;;;;;76.43;14.38;;;-1.30;99.90;;;;;;5054873;28;20029;-93
2023/01/21 09:52:50;;;;;;;91.53;13.23;;;-1.40;99.90;;;;;;5057020;28;20032;-93
2023/01/21 09:55:31;;;;;;;71.85;15.05;;;-1.40;99.90;;;;;;5056801;28;20025;-93
2023/01/21 09:58:26;;;;;;;141.82;17.33;;;-1.50;99.90;;;;;;5057561;28;20032;-94
2023/01/21 10:00:58;;;;;;;140.90;18.10;;;-1.50;99.90;;;;;;5047045;28;20036;-94
2023/01/21 10:03:38;;;;;;;132.88;18.77;;;-1.50;99.90;;;;;;5057745;28;20273;-94
2023/01/21 10:06:18;;;;;;;54.08;13.43;;;-1.50;99.90;;;;;;5057651;28;20275;-95
2023/01/21 10:09:00;;;;;;;;;;;-1.60;99.90;;;;;;5057436;28;20049;-94
2023/01/21 10:11:53;;;;;;;44.15;12.75;;;-1.60;99.90;;;;;;5057434;28;19912;-95
2023/01/21 10:14:26;;;;;;;73.00;13.55;;;-1.50;99.90;;;;;;5057192;28;20028;-95
2023/01/21 10:16:51;;;;;;;53.63;11.68;;;-1.50;99.90;;;;;;5059547;28;20033;-95
2023/01/21 10:19:27;;;;;;;71.93;13.60;;;-1.50;99.90;;;;;;5062359;28;20051;-94
2023/01/21 10:22:16;;;;;;;105.28;13.15;;;-1.50;99.90;;;;;;5065468;28;20063;-95
2023/01/21 10:24:50;;;;;;;82.47;12.50;;;-1.50;99.90;;;;;;5065541;28;20017;-92
2023/01/21 10:27:20;;;;;;;52.95;11.77;;;-1.40;99.90;;;;;;5063996;28;20123;-94
2023/01/21 10:29:53;;;;;;;113.68;13.60;;;-1.50;99.90;;;;;;5061731;28;20144;-94
2023/01/21 10:32:26;;;;;;;136.05;18.98;;;-1.40;99.90;;;;;;5061525;28;20059;-94
2023/01/21 10:34:56;;;;;;;117.40;17.90;;;-1.50;99.90;;;;;;5059940;28;20097;-95
2023/01/21 10:37:24;;;;;;;122.88;24.48;;;-1.50;99.90;;;;;;5058797;28;20031;-94
2023/01/21 10:39:50;;;;;;;129.10;29.48;;;-1.50;99.90;;;;;;5057396;28;20039;-95
2023/01/21 10:42:29;;;;;;;72.93;24.50;;;-1.60;99.90;;;;;;5057383;28;20055;-95
2023/01/21 10:45:10;;;;;;;100.72;20.65;;;-1.50;99.90;;;;;;5057163;28;20082;-95
2023/01/21 10:48:16;;;;;;;140.25;20.30;;;-1.50;99.90;;;;;;5074902;28;20024;-93
2023/01/21 10:51:05;;;;;;;176.40;19.08;;;-1.50;99.90;;;;;;4993742;28;20043;-93
2023/01/21 10:53:40;;;;;;;61.70;14.95;;;-1.50;99.90;;;;;;4978499;28;20038;-94
2023/01/21 10:56:32;;;;;;;128.23;13.85;;;-1.50;99.90;;;;;;4980323;28;20030;-94
2023/01/21 10:59:04;;;;;;;114.68;11.88;;;-1.50;99.90;;;;;;4999750;28;20044;-95
2023/01/21 11:01:37;;;;;;;116.00;10.63;;;-1.50;99.90;;;;;;4978860;28;20113;-95
2023/01/21 11:04:16;;;;;;;171.23;19.27;;;-1.60;99.90;;;;;;4977124;28;20027;-94
2023/01/21 11:06:45;;;;;;;55.80;10.45;;;-1.60;99.90;;;;;;4993614;28;20153;-94
2023/01/21 11:09:13;;;;;;;68.65;11.82;;;-1.60;99.90;;;;;;4977684;28;20197;-95
2023/01/21 11:11:41;;;;;;;96.50;9.95;;;-1.50;99.90;;;;;;4978854;28;20535;-96
2023/01/21 11:14:08;;;;;;;80.75;10.23;;;-1.50;99.90;;;;;;4978728;28;20037;-96
2023/01/21 11:16:42;;;;;;;82.72;10.35;;;-1.40;99.90;;;;;;4978534;28;20058;-94
2023/01/21 11:19:11;;;;;;;133.63;13.55;;;-1.40;99.90;;;;;;4977935;28;20106;-94
2023/01/21 11:21:38;;;;;;;106.60;11.13;;;-1.40;99.90;;;;;;4977285;28;20033;-95
2023/01/21 11:24:23;;;;;;;34.63;9.00;;;-1.40;99.90;;;;;;5013810;28;20040;-95
2023/01/21 11:27:02;;;;;;;107.97;11.32;;;-1.40;99.90;;;;;;5074651;28;20149;-95
2023/01/21 11:29:39;;;;;;;45.97;9.32;;;-1.40;99.90;;;;;;5057009;28;20020;-93
2023/01/21 11:32:40;;;;;;;117.13;14.07;;;-1.30;99.90;;;;;;5057530;28;20028;-95
2023/01/21 11:35:19;;;;;;;35.70;9.18;;;-1.30;99.90;;;;;;5058916;28;20036;-96
2023/01/21 11:37:45;;;;;;;41.05;9.25;;;-1.20;99.90;;;;;;5062119;28;20032;-95
2023/01/21 11:40:24;;;;;;;283.90;19.02;;;-1.10;99.90;;;;;;5060090;28;20052;-95
2023/01/21 11:42:55;;;;;;;140.02;22.70;;;-1.10;99.90;;;;;;5060678;28;20028;-95
2023/01/21 11:45:37;;;;;;;102.32;17.10;;;-1.00;99.90;;;;;;5060392;28;20073;-95
2023/01/21 11:48:19;;;;;;;100.00;14.27;;;-1.00;99.90;;;;;;5077297;28;20020;-95
2023/01/21 11:50:45;;;;;;;116.10;14.85;;;-0.90;99.90;;;;;;5060473;28;20089;-95
2023/01/21 11:53:16;;;;;;;47.95;12.25;;;-0.90;99.90;;;;;;5077617;28;20115;-95
2023/01/21 11:55:58;;;;;;;50.85;10.57;;;-0.80;99.90;;;;;;5060805;28;20039;-96
2023/01/21 11:58:28;;;;;;;79.70;13.18;;;-0.70;99.90;;;;;;5062402;28;20032;-96
2023/01/21 12:00:56;;;;;;;26.92;8.07;;;-0.60;99.90;;;;;;5063310;28;20119;-94
2023/01/21 12:03:35;;;;;;;120.85;19.85;;;-0.50;99.90;;;;;;5069743;28;20029;-93
2023/01/21 12:06:01;;;;;;;211.23;29.98;;;-0.40;99.90;;;;;;5062573;28;20054;-95
2023/01/21 12:08:33;;;;;;;91.45;23.10;;;-0.30;99.90;;;;;;5061752;28;20028;-95
2023/01/21 12:11:10;;;;;;;73.20;12.18;;;-0.10;99.90;;;;;;5068400;28;20051;-94
2023/01/21 12:13:42;;;;;;;113.15;13.10;;;0.00;99.90;;;;;;5066415;28;20028;-94
2023/01/21 12:16:34;;;;;;;62.90;12.65;;;0.00;99.90;;;;;;5060120;28;20081;-94
2023/01/21 12:19:26;;;;;;;145.75;16.90;;;0.10;99.90;;;;;;5038583;28;20044;-94
2023/01/21 12:22:10;;;;;;;49.55;12.68;;;0.20;99.90;;;;;;5059797;28;20100;-95
2023/01/21 12:24:54;;;;;;;158.93;23.38;;;0.20;99.90;;;;;;5059958;28;20092;-94
2023/01/21 12:27:26;;;;;;;38.90;14.55;;;0.20;99.90;;;;;;5059471;28;20123;-94
2023/01/21 12:30:11;;;;;;;61.55;15.93;;;0.30;99.90;;;;;;5059522;28;20027;-94
2023/01/21 12:32:49;;;;;;;56.85;17.92;;;0.40;99.90;;;;;;5059553;28;20090;-94
2023/01/21 12:35:35;;;;;;;59.15;19.80;;;0.60;99.90;;;;;;5059837;28;20020;-94
2023/01/21 12:38:17;;;;;;;133.57;23.00;;;0.70;99.90;;;;;;5059239;28;20570;-93
2023/01/21 12:41:09;;;;;;;102.97;21.48;;;0.70;99.90;;;;;;5075067;28;20454;-95
2023/01/21 12:44:00;;;;;;;135.32;27.27;;;0.80;99.90;;;;;;5060229;28;20043;-94
2023/01/21 12:46:45;;;;;;;;;;;0.90;99.90;;;;;;5077226;28;20047;-92
2023/01/21 12:49:43;;;;;;;103.30;25.58;;;1.00;99.90;;;;;;5057064;28;19998;-95
2023/01/21 12:52:35;;;;;;;87.70;25.55;;;1.00;99.90;;;;;;4997910;28;20078;-92
2023/01/21 12:55:42;;;;;;;102.40;28.08;;;1.00;99.90;;;;;;4996501;28;20030;-93
2023/01/21 12:58:35;;;;;;;94.10;30.45;;;1.00;99.90;;;;;;4936897;29;20059;-94